Time;durP1;ratioP1;P1;durP2;ratioP2;P2;SDS_P1;SDS_P2;PMS_P1;PMS_P2;Temp;Humidity;BMP_temperature;BMP_pressure;BME280_temperature;BME280_humidity;BME280_pressure;Samples;Min_cycle;Max_cycle;Signal;HPM_P1;HPM_P2
2023/08/31 00:01:09;;;;;;;2.40;2.08;;;;;;;14.58;78.74;97529.59;4876000;29;20528;-71
2023/08/31 00:03:34;;;;;;;2.92;1.88;;;;;;;14.55;78.45;97514.72;4877244;29;20120;-71
2023/08/31 00:06:03;;;;;;;2.97;1.80;;;;;;;14.65;78.47;97525.47;4891713;29;20021;-71
2023/08/31 00:08:28;;;;;;;3.65;2.33;;;;;;;14.60;78.59;97521.97;4891494;29;20040;-70
2023/08/31 00:10:57;;;;;;;3.35;2.00;;;;;;;14.51;78.40;97528.03;4891552;29;20036;-72
2023/08/31 00:13:24;;;;;;;3.97;2.08;;;;;;;14.47;78.50;97534.28;4875955;29;20040;-70
2023/08/31 00:15:49;;;;;;;3.47;2.00;;;;;;;14.27;78.61;97501.94;4877186;29;20108;-70
2023/08/31 00:18:16;;;;;;;3.03;1.83;;;;;;;14.37;78.86;97512.72;4877161;29;20161;-70
2023/08/31 00:20:42;;;;;;;2.35;1.85;;;;;;;14.43;78.81;97508.88;4877215;29;20036;-69
2023/08/31 00:23:08;;;;;;;2.90;1.85;;;;;;;14.25;78.71;97488.69;4891204;29;20029;-70
2023/08/31 00:25:34;;;;;;;3.50;2.13;;;;;;;14.26;78.96;97503.84;4879050;29;20416;-70
2023/08/31 00:28:04;;;;;;;2.72;1.73;;;;;;;14.29;79.31;97534.97;4880807;29;20049;-71
2023/08/31 00:30:30;;;;;;;2.92;1.90;;;;;;;14.20;79.48;97536.69;4880907;29;20033;-69
2023/08/31 00:32:59;;;;;;;3.72;1.92;;;;;;;14.17;79.83;97542.66;4894761;29;20510;-70
2023/08/31 00:35:27;;;;;;;2.03;1.80;;;;;;;14.18;79.72;97536.16;4894997;29;20040;-72
2023/08/31 00:37:58;;;;;;;2.95;2.00;;;;;;;14.14;79.76;97535.13;4876293;29;20077;-70
2023/08/31 00:40:23;;;;;;;1.85;1.65;;;;;;;14.17;79.81;97529.09;4874587;29;20488;-72
2023/08/31 00:42:49;;;;;;;2.35;1.98;;;;;;;14.19;79.93;97540.50;4879329;29;20028;-71
2023/08/31 00:45:15;;;;;;;3.40;2.03;;;;;;;14.17;79.95;97545.34;4890154;29;20041;-71
2023/08/31 00:47:41;;;;;;;4.30;2.00;;;;;;;14.02;80.70;97537.38;4894945;29;20108;-71
2023/08/31 00:50:07;;;;;;;3.00;1.90;;;;;;;14.07;81.25;97550.88;4894727;29;20150;-72
2023/08/31 00:52:34;;;;;;;3.22;1.70;;;;;;;13.98;81.33;97545.22;4863552;29;20048;-70
2023/08/31 00:55:00;;;;;;;2.78;1.98;;;;;;;13.94;81.49;97546.06;4894637;29;20037;-72
2023/08/31 00:57:27;;;;;;;2.15;1.92;;;;;;;13.79;81.42;97534.25;4879169;29;20024;-72
2023/08/31 00:59:52;;;;;;;2.08;1.85;;;;;;;13.91;81.34;97547.44;4894758;29;20534;-74
2023/08/31 01:02:39;;;;;;;3.67;1.98;;;;;;;13.81;81.19;97542.94;4880105;29;20025;-72
2023/08/31 01:05:24;;;;;;;4.07;2.08;;;;;;;13.88;81.13;97556.94;4894392;29;20037;-71
2023/08/31 01:07:58;;;;;;;2.22;2.03;;;;;;;13.88;81.21;97556.94;4880257;29;20510;-71
2023/08/31 01:10:32;;;;;;;2.53;2.05;;;;;;;13.83;81.42;97559.69;4894608;29;20048;-71
2023/08/31 01:13:11;;;;;;;3.17;2.28;;;;;;;13.80;81.19;97564.84;4894265;29;20068;-73
2023/08/31 01:15:38;;;;;;;3.55;2.10;;;;;;;13.74;82.02;97558.69;4894217;29;20385;-72
2023/08/31 01:18:04;;;;;;;4.78;2.28;;;;;;;13.70;82.12;97563.00;4894402;29;20053;-72
2023/08/31 01:20:48;;;;;;;2.58;2.10;;;;;;;13.63;82.06;97562.50;4894249;29;20059;-72
2023/08/31 01:23:19;;;;;;;2.30;2.10;;;;;;;13.61;83.04;97564.69;4893963;29;20041;-73
2023/08/31 01:25:45;;;;;;;2.60;2.40;;;;;;;13.55;82.73;97554.19;4894265;29;20037;-72
2023/08/31 01:28:11;;;;;;;2.45;2.25;;;;;;;13.49;82.95;97536.38;4876447;29;20033;-71
2023/08/31 01:30:37;;;;;;;2.50;2.30;;;;;;;13.51;83.02;97553.91;4879859;29;20045;-73
2023/08/31 01:33:02;;;;;;;2.40;2.20;;;;;;;13.58;83.29;97576.06;4875688;29;20029;-72
2023/08/31 01:35:31;;;;;;;3.63;2.00;;;;;;;13.50;83.10;97579.38;4894023;29;20037;-73
2023/08/31 01:37:59;;;;;;;5.75;2.40;;;;;;;13.41;83.11;97591.84;4877469;29;20021;-72
2023/08/31 01:40:32;;;;;;;3.22;2.45;;;;;;;13.35;83.15;97592.94;4893982;29;20045;-72
2023/08/31 01:42:58;;;;;;;3.08;2.58;;;;;;;13.25;83.88;97590.28;4896591;29;20048;-71
2023/08/31 01:45:24;;;;;;;3.08;2.38;;;;;;;13.27;84.12;97585.41;4872558;29;20079;-69
2023/08/31 01:47:49;;;;;;;5.47;2.67;;;;;;;13.21;84.07;97586.50;4893961;29;20484;-72
2023/08/31 01:50:14;;;;;;;3.45;2.70;;;;;;;13.21;84.40;97589.19;4893662;29;20567;-72
2023/08/31 01:52:40;;;;;;;4.25;2.70;;;;;;;13.19;84.39;97577.84;4862483;29;20037;-71
2023/08/31 01:55:06;;;;;;;2.80;2.53;;;;;;;13.22;84.72;97598.94;4874859;29;20484;-72
2023/08/31 01:57:32;;;;;;;5.95;2.80;;;;;;;13.23;84.66;97589.75;4874761;29;21363;-71
2023/08/31 02:00:11;;;;;;;3.05;2.78;;;;;;;13.17;85.26;97596.25;4893650;29;20028;-73
2023/08/31 02:02:42;;;;;;;2.92;2.70;;;;;;;13.21;85.11;97597.31;4879199;29;20048;-72
2023/08/31 02:05:08;;;;;;;4.40;2.80;;;;;;;13.24;85.11;97594.06;4879112;29;20040;-71
2023/08/31 02:07:34;;;;;;;5.15;3.03;;;;;;;13.23;85.30;97589.75;4877988;29;20381;-71
2023/08/31 02:10:01;;;;;;;4.07;3.20;;;;;;;13.32;84.73;97598.09;4893558;29;20041;-73
2023/08/31 02:12:26;;;;;;;3.50;3.10;;;;;;;13.22;85.11;97601.66;4893182;29;20041;-70
2023/08/31 02:14:51;;;;;;;3.85;3.00;;;;;;;13.26;85.54;97604.59;4878891;29;20041;-72
2023/08/31 02:17:17;;;;;;;3.25;2.83;;;;;;;13.26;85.35;97600.00;4878939;29;20025;-72
2023/08/31 02:19:42;;;;;;;4.65;3.40;;;;;;;13.13;84.88;97581.69;4878934;29;20040;-70
2023/08/31 02:22:08;;;;;;;5.03;2.90;;;;;;;13.22;84.61;97581.91;4874133;29;20030;-71
2023/08/31 02:24:33;;;;;;;5.63;3.00;;;;;;;13.35;84.56;97603.75;4870219;29;20121;-69
2023/08/31 02:26:59;;;;;;;4.32;3.20;;;;;;;13.41;84.50;97597.25;4874597;29;20036;-69
2023/08/31 02:29:25;;;;;;;4.45;3.92;;;;;;;13.53;84.62;97605.06;4885345;29;20407;-70
2023/08/31 02:31:51;;;;;;;4.68;3.35;;;;;;;13.50;84.74;97611.81;4892752;29;20039;-69
2023/08/31 02:34:16;;;;;;;4.55;3.13;;;;;;;13.50;84.49;97598.31;4892920;29;20036;-69
2023/08/31 02:36:41;;;;;;;4.97;3.30;;;;;;;13.51;84.58;97608.00;4874187;29;20532;-70
2023/08/31 02:39:09;;;;;;;5.55;3.35;;;;;;;13.49;84.26;97609.41;4884798;29;20405;-70
2023/08/31 02:41:35;;;;;;;3.60;3.30;;;;;;;13.41;84.62;97586.44;4874013;29;20117;-72
2023/08/31 02:44:03;;;;;;;3.83;3.40;;;;;;;13.41;84.53;97596.44;4885268;29;20036;-71
2023/08/31 02:46:29;;;;;;;7.10;3.30;;;;;;;13.48;84.70;97608.59;4878522;29;20400;-72
2023/08/31 02:48:54;;;;;;;5.57;3.30;;;;;;;13.47;84.49;97600.72;4892530;29;20368;-73
2023/08/31 02:51:19;;;;;;;4.13;3.25;;;;;;;13.48;84.28;97596.97;4878061;29;20444;-72
2023/08/31 02:53:45;;;;;;;3.72;3.40;;;;;;;13.47;84.40;97600.72;4892632;29;20040;-70
2023/08/31 02:56:10;;;;;;;5.78;3.60;;;;;;;13.55;84.25;97603.69;4878175;29;20024;-73
2023/08/31 02:58:36;;;;;;;3.50;2.90;;;;;;;13.61;84.41;97610.69;4892601;29;20047;-73
2023/08/31 03:01:20;;;;;;;3.72;3.40;;;;;;;13.63;84.11;97611.22;4892380;29;20033;-73
2023/08/31 03:03:47;;;;;;;4.57;3.67;;;;;;;13.66;84.36;97609.84;4892420;29;20037;-71
2023/08/31 03:06:13;;;;;;;4.78;3.67;;;;;;;13.71;84.74;97602.53;4892463;29;20025;-71
2023/08/31 03:08:38;;;;;;;5.68;3.78;;;;;;;13.82;84.61;97609.50;4892239;29;20045;-71
2023/08/31 03:11:05;;;;;;;4.97;3.40;;;;;;;13.79;85.23;97610.03;4892327;29;20139;-71
2023/08/31 03:13:33;;;;;;;5.63;3.78;;;;;;;13.88;84.93;97608.38;4878015;29;20620;-69
2023/08/31 03:15:59;;;;;;;4.40;3.28;;;;;;;13.82;84.90;97603.25;4861185;29;20029;-69
2023/08/31 03:18:26;;;;;;;7.43;3.83;;;;;;;13.91;84.91;97611.63;4892062;29;20496;-71
2023/08/31 03:20:52;;;;;;;5.30;3.70;;;;;;;13.87;84.63;97597.81;4896125;29;20039;-69
2023/08/31 03:23:17;;;;;;;4.95;3.60;;;;;;;13.91;85.26;97595.38;4881742;29;20503;-69
2023/08/31 03:25:42;;;;;;;5.10;3.35;;;;;;;13.86;85.19;97612.47;4873542;29;20460;-71
2023/08/31 03:28:08;;;;;;;4.63;3.85;;;;;;;13.94;85.32;97628.09;4871172;29;20517;-69
2023/08/31 03:30:34;;;;;;;5.20;3.85;;;;;;;13.83;85.06;97611.13;4878172;29;20025;-70
2023/08/31 03:32:59;;;;;;;5.00;4.00;;;;;;;13.97;85.24;97629.44;4876499;29;20499;-70
2023/08/31 03:35:27;;;;;;;4.43;4.03;;;;;;;13.81;85.31;97607.91;4873654;29;20137;-69
2023/08/31 03:37:55;;;;;;;5.55;4.53;;;;;;;13.92;85.14;97629.47;4872707;29;20040;-68
2023/08/31 03:40:22;;;;;;;5.50;4.18;;;;;;;13.85;85.48;97611.66;4873729;29;20106;-69
2023/08/31 03:42:49;;;;;;;6.03;4.57;;;;;;;13.85;85.56;97625.19;4872535;29;20041;-70
2023/08/31 03:45:15;;;;;;;7.38;4.82;;;;;;;13.86;84.92;97629.50;4861245;29;20124;-70
2023/08/31 03:47:40;;;;;;;6.60;4.70;;;;;;;13.80;85.24;97633.31;4891735;29;20041;-71
2023/08/31 03:50:06;;;;;;;4.78;4.28;;;;;;;13.78;85.11;97640.91;4876136;29;20060;-71
2023/08/31 03:52:31;;;;;;;7.18;4.70;;;;;;;13.65;85.30;97629.91;4860642;29;20539;-72
2023/08/31 03:54:57;;;;;;;8.00;5.35;;;;;;;13.67;85.69;97650.19;4873188;29;20026;-70
2023/08/31 03:57:23;;;;;;;7.47;4.70;;;;;;;13.60;85.85;97649.66;4872654;29;20534;-70
2023/08/31 03:59:50;;;;;;;5.75;5.18;;;;;;;13.55;85.53;97657.81;4880194;29;20033;-68
2023/08/31 04:02:16;;;;;;;6.00;4.80;;;;;;;13.58;85.86;97646.41;4886832;29;20051;-68
2023/08/31 04:04:41;;;;;;;8.50;6.22;;;;;;;13.62;85.69;97652.09;4877402;29;20036;-69
2023/08/31 04:07:07;;;;;;;7.18;6.32;;;;;;;13.60;85.57;97655.09;4874820;29;20140;-70
2023/08/31 04:09:32;;;;;;;7.40;6.25;;;;;;;13.53;86.34;97643.75;4877558;29;20021;-69
2023/08/31 04:11:58;;;;;;;10.00;6.40;;;;;;;13.66;86.28;97653.97;4877182;29;20033;-69
2023/08/31 04:14:26;;;;;;;7.68;5.70;;;;;;;13.71;86.33;97669.38;4877121;29;20025;-70
2023/08/31 04:16:51;;;;;;;8.52;5.78;;;;;;;13.65;86.25;97668.56;4891378;29;20200;-68
2023/08/31 04:19:17;;;;;;;8.38;5.53;;;;;;;13.62;86.56;97679.16;4877286;29;20036;-68
2023/08/31 04:21:43;;;;;;;8.27;6.60;;;;;;;13.66;86.46;97675.59;4881834;29;20048;-68
2023/08/31 04:24:08;;;;;;;7.10;5.97;;;;;;;13.71;86.48;97677.47;4877205;29;20025;-69
2023/08/31 04:26:33;;;;;;;7.55;5.68;;;;;;;13.69;87.37;97679.66;4877321;29;20040;-69
2023/08/31 04:28:59;;;;;;;9.82;6.00;;;;;;;13.76;87.04;97678.28;4877151;29;20048;-69
2023/08/31 04:31:24;;;;;;;8.05;5.90;;;;;;;13.72;86.91;97674.50;4876678;29;20411;-69
2023/08/31 04:33:53;;;;;;;7.88;6.40;;;;;;;13.79;86.97;97685.81;4876790;29;20112;-69
2023/08/31 04:36:21;;;;;;;9.15;6.88;;;;;;;13.81;86.62;97694.50;4891446;29;20407;-70
2023/08/31 04:38:48;;;;;;;9.13;6.72;;;;;;;13.80;86.79;97692.06;4891623;29;20029;-71
2023/08/31 04:41:14;;;;;;;8.30;6.95;;;;;;;13.73;87.35;97686.94;4875565;29;20044;-70
2023/08/31 04:43:39;;;;;;;8.40;6.93;;;;;;;13.84;87.21;97699.34;4883805;29;20446;-71
2023/08/31 04:46:05;;;;;;;7.25;6.53;;;;;;;13.81;86.83;97689.09;4881075;29;20048;-71
2023/08/31 04:48:30;;;;;;;9.63;6.90;;;;;;;13.80;86.98;97687.47;4876952;29;20029;-71
2023/08/31 04:50:57;;;;;;;8.05;7.03;;;;;;;13.85;87.19;97698.28;4891097;29;20058;-71
2023/08/31 04:53:22;;;;;;;8.95;6.78;;;;;;;13.85;86.85;97700.16;4891058;29;20120;-72
2023/08/31 04:55:47;;;;;;;7.43;6.72;;;;;;;13.88;87.17;97704.22;4876792;29;20132;-72
2023/08/31 04:58:13;;;;;;;8.95;6.30;;;;;;;13.86;86.94;97712.63;4876780;29;20037;-72
2023/08/31 05:00:39;;;;;;;9.00;7.28;;;;;;;13.88;86.89;97711.22;4876815;29;20116;-72
2023/08/31 05:03:04;;;;;;;11.85;7.40;;;;;;;13.89;87.02;97706.63;4872361;29;20419;-72
2023/08/31 05:05:30;;;;;;;8.13;6.75;;;;;;;13.85;87.18;97700.97;4871104;29;20124;-71
2023/08/31 05:07:55;;;;;;;9.43;6.80;;;;;;;13.88;86.68;97722.06;4872781;29;20065;-72
2023/08/31 05:10:21;;;;;;;10.18;7.32;;;;;;;13.76;87.47;97713.47;4872039;29;20037;-71
2023/08/31 05:12:46;;;;;;;7.85;6.95;;;;;;;13.82;87.14;97731.28;4894437;29;20081;-72
2023/08/31 05:15:11;;;;;;;10.63;7.25;;;;;;;13.81;86.95;97729.69;4905092;29;20049;-71
2023/08/31 05:17:37;;;;;;;8.27;6.93;;;;;;;13.83;86.79;97730.22;4880113;29;20025;-72
2023/08/31 05:20:05;;;;;;;8.60;6.88;;;;;;;13.83;86.71;97735.63;4878878;29;20080;-73
2023/08/31 05:22:30;;;;;;;7.38;6.68;;;;;;;13.86;86.95;97740.47;4878589;29;20029;-73
2023/08/31 05:24:56;;;;;;;11.05;8.05;;;;;;;13.86;86.48;97737.78;4894224;29;20033;-73
2023/08/31 05:27:21;;;;;;;10.32;7.07;;;;;;;13.82;86.68;97744.81;4880143;29;20029;-73
2023/08/31 05:29:46;;;;;;;9.80;8.27;;;;;;;13.88;86.96;97742.09;4879778;29;20033;-72
2023/08/31 05:32:12;;;;;;;11.90;8.63;;;;;;;13.85;86.77;97749.69;4879550;29;20040;-72
2023/08/31 05:34:39;;;;;;;9.30;8.38;;;;;;;13.96;86.77;97746.94;4878344;29;20512;-72
2023/08/31 05:37:04;;;;;;;11.38;8.52;;;;;;;14.03;86.41;97760.97;4879658;29;20031;-72
2023/08/31 05:39:30;;;;;;;9.35;8.25;;;;;;;14.00;86.34;97753.44;4879603;29;20033;-71
2023/08/31 05:41:55;;;;;;;12.25;8.40;;;;;;;14.00;86.47;97756.97;4893903;29;20100;-71
2023/08/31 05:44:22;;;;;;;11.95;8.05;;;;;;;14.04;86.66;97765.31;4892926;29;20057;-73
2023/08/31 05:46:47;;;;;;;10.60;8.63;;;;;;;13.93;86.15;97751.03;4874097;29;20127;-73
2023/08/31 05:49:12;;;;;;;13.43;9.30;;;;;;;14.05;86.64;97764.25;4893868;29;20083;-72
2023/08/31 05:51:38;;;;;;;12.60;8.77;;;;;;;14.03;86.61;97767.22;4879427;29;20029;-72
2023/08/31 05:54:03;;;;;;;10.43;8.43;;;;;;;14.00;86.55;97756.16;4867071;29;20124;-72
2023/08/31 05:56:29;;;;;;;10.43;8.07;;;;;;;14.14;86.58;97763.38;4893810;29;20029;-72
2023/08/31 05:58:55;;;;;;;12.15;8.65;;;;;;;14.06;86.71;97749.59;4879359;29;20041;-72
2023/08/31 06:01:22;;;;;;;11.43;8.07;;;;;;;14.18;86.45;97769.06;4871560;29;20021;-72
2023/08/31 06:03:48;;;;;;;9.00;8.00;;;;;;;14.20;86.00;97772.28;4872165;29;20041;-71
2023/08/31 06:06:13;;;;;;;11.98;8.32;;;;;;;14.06;85.96;97744.19;4868497;29;20025;-73
2023/08/31 06:08:39;;;;;;;10.52;7.85;;;;;;;14.31;85.76;97772.00;4893495;29;20049;-73
2023/08/31 06:11:04;;;;;;;12.32;8.05;;;;;;;14.33;86.13;97766.28;4893466;29;20088;-75
2023/08/31 06:13:29;;;;;;;8.93;7.95;;;;;;;14.51;85.54;97773.81;4904591;29;20037;-77
2023/08/31 06:15:59;;;;;;;12.80;7.45;;;;;;;14.73;85.22;97786.94;4893430;29;20053;-73
2023/08/31 06:18:25;;;;;;;13.07;8.60;;;;;;;14.67;84.90;97772.63;4893228;29;20135;-73
2023/08/31 06:20:50;;;;;;;13.73;8.23;;;;;;;14.70;84.87;97766.66;4893543;29;20033;-73
2023/08/31 06:23:16;;;;;;;9.48;7.80;;;;;;;14.74;84.58;97778.53;4881508;29;20040;-73
2023/08/31 06:25:41;;;;;;;10.55;8.30;;;;;;;14.70;84.38;97782.91;4878924;29;20025;-73
2023/08/31 06:28:08;;;;;;;9.65;7.65;;;;;;;14.71;84.38;97768.25;4892586;29;20602;-73
2023/08/31 06:30:34;;;;;;;10.63;7.60;;;;;;;14.83;84.16;97786.88;4878770;29;20471;-73
2023/08/31 06:33:00;;;;;;;8.48;7.57;;;;;;;14.84;84.25;97788.50;4878278;29;20454;-73
2023/08/31 06:35:26;;;;;;;9.18;7.57;;;;;;;14.83;83.73;97776.84;4892926;29;20028;-72
2023/08/31 06:37:51;;;;;;;12.98;7.45;;;;;;;14.91;83.50;97768.09;4893082;29;20048;-73
2023/08/31 06:40:17;;;;;;;11.07;7.32;;;;;;;15.09;83.39;97774.75;4892879;29;20071;-71
2023/08/31 06:42:43;;;;;;;9.57;7.22;;;;;;;15.22;83.04;97796.63;4893396;29;20496;-73
2023/08/31 06:45:09;;;;;;;14.90;7.38;;;;;;;15.29;82.49;97784.63;4890195;29;20045;-72
2023/08/31 06:47:34;;;;;;;10.85;7.22;;;;;;;15.30;82.13;97775.41;4892921;29;20551;-73
2023/08/31 06:50:00;;;;;;;10.68;7.93;;;;;;;15.35;81.59;97794.34;4878366;29;20029;-73
2023/08/31 06:52:26;;;;;;;9.40;7.72;;;;;;;15.23;80.94;97771.13;4878103;29;20120;-73
2023/08/31 06:54:56;;;;;;;9.27;7.40;;;;;;;15.51;80.71;97796.69;4892636;29;20029;-73
2023/08/31 06:57:22;;;;;;;9.35;7.13;;;;;;;15.53;80.59;97790.94;4877043;29;20051;-74
2023/08/31 06:59:48;;;;;;;9.90;8.82;;;;;;;15.46;80.52;97790.47;4892472;29;20400;-71
2023/08/31 07:02:14;;;;;;;11.60;8.32;;;;;;;15.43;79.98;97805.38;4892277;29;20044;-72
2023/08/31 07:04:40;;;;;;;11.70;8.35;;;;;;;15.29;80.04;97800.91;4877472;29;20028;-73
2023/08/31 07:07:06;;;;;;;12.45;8.00;;;;;;;15.31;79.83;97804.16;4877773;29;20476;-73
2023/08/31 07:09:31;;;;;;;13.88;8.38;;;;;;;15.30;79.67;97797.09;4877939;29;20025;-74
2023/08/31 07:11:58;;;;;;;11.50;8.45;;;;;;;15.31;79.57;97809.59;4892010;29;20152;-73
2023/08/31 07:14:23;;;;;;;10.27;8.55;;;;;;;15.27;80.03;97814.75;4877853;29;20029;-74
2023/08/31 07:16:48;;;;;;;13.43;9.30;;;;;;;15.06;80.25;97778.84;4890280;29;20552;-72
2023/08/31 07:19:14;;;;;;;9.38;8.43;;;;;;;15.29;80.52;97812.56;4877466;29;20065;-74
2023/08/31 07:21:39;;;;;;;10.30;8.32;;;;;;;15.29;80.47;97817.16;4876691;29;20045;-71
2023/08/31 07:24:05;;;;;;;10.98;8.65;;;;;;;15.26;80.98;97823.19;4877335;29;20033;-72
2023/08/31 07:26:30;;;;;;;12.70;9.07;;;;;;;15.15;80.77;97817.00;4877845;29;20044;-71
2023/08/31 07:28:55;;;;;;;10.88;8.63;;;;;;;15.19;80.65;97829.72;4877876;29;20029;-71
2023/08/31 07:31:21;;;;;;;11.70;8.45;;;;;;;15.12;80.97;97823.81;4870591;29;20040;-72
2023/08/31 07:33:46;;;;;;;10.98;9.40;;;;;;;15.07;80.47;97832.00;4876909;29;20399;-71
2023/08/31 07:36:12;;;;;;;18.05;10.18;;;;;;;15.06;80.42;97841.22;4879067;29;20094;-71
2023/08/31 07:38:37;;;;;;;13.13;9.70;;;;;;;15.12;80.62;97840.09;4885503;29;20090;-72
2023/08/31 07:41:04;;;;;;;14.38;9.43;;;;;;;15.29;80.21;97844.31;4871676;29;20590;-73
2023/08/31 07:43:29;;;;;;;11.57;9.43;;;;;;;15.33;80.11;97846.19;4876527;29;20033;-73
2023/08/31 07:45:55;;;;;;;10.77;9.27;;;;;;;15.37;79.96;97835.56;4876475;29;20036;-73
2023/08/31 07:48:21;;;;;;;11.00;9.55;;;;;;;15.30;80.22;97829.66;4885422;29;20108;-74
2023/08/31 07:50:48;;;;;;;12.98;9.95;;;;;;;15.34;79.97;97846.97;4886409;29;20036;-73
2023/08/31 07:53:14;;;;;;;12.90;10.63;;;;;;;15.35;79.68;97856.75;4891463;29;20044;-73
2023/08/31 07:55:39;;;;;;;14.05;9.70;;;;;;;15.27;79.42;97852.75;4875029;29;20045;-72
2023/08/31 07:58:05;;;;;;;13.43;9.65;;;;;;;15.20;79.26;97852.25;4892004;29;20037;-73
2023/08/31 08:00:30;;;;;;;13.75;9.98;;;;;;;15.07;79.11;97842.88;4877443;29;20048;-73
2023/08/31 08:02:55;;;;;;;15.20;9.95;;;;;;;14.97;79.00;97842.91;4872849;29;20112;-74
2023/08/31 08:05:21;;;;;;;12.65;10.02;;;;;;;15.19;78.55;97858.78;4870118;29;20037;-71
2023/08/31 08:07:47;;;;;;;15.02;9.48;;;;;;;15.53;78.08;97866.94;4891679;29;20036;-72
2023/08/31 08:10:12;;;;;;;10.95;8.73;;;;;;;15.70;76.94;97845.63;4876133;29;20521;-71
2023/08/31 08:12:45;;;;;;;11.45;8.75;;;;;;;16.00;76.07;97872.50;4877132;29;20079;-71
2023/08/31 08:15:10;;;;;;;11.52;7.55;;;;;;;16.10;75.96;97874.31;4891498;29;20064;-72
2023/08/31 08:17:36;;;;;;;9.13;6.63;;;;;;;16.29;75.06;97869.75;4876292;29;20488;-74
2023/08/31 08:20:03;;;;;;;11.02;6.03;;;;;;;16.25;73.08;97853.22;4891238;29;20041;-71
2023/08/31 08:22:28;;;;;;;8.80;6.10;;;;;;;16.16;72.74;97876.69;4879523;29;20447;-74
2023/08/31 08:24:53;;;;;;;6.97;5.20;;;;;;;16.10;72.13;97866.97;4877327;29;20036;-72
2023/08/31 08:27:20;;;;;;;6.80;5.50;;;;;;;16.11;72.42;97878.63;4885238;29;20030;-72
2023/08/31 08:29:45;;;;;;;8.13;5.10;;;;;;;16.32;72.66;97893.63;4885589;29;20088;-72
2023/08/31 08:32:11;;;;;;;8.07;5.38;;;;;;;16.48;72.43;97879.56;4860318;29;20029;-71
2023/08/31 08:34:36;;;;;;;6.40;4.85;;;;;;;16.67;71.88;97884.25;4875911;29;20388;-72
2023/08/31 08:37:03;;;;;;;7.47;5.15;;;;;;;16.55;70.50;97885.50;4885003;29;20128;-73
2023/08/31 08:39:29;;;;;;;7.32;5.00;;;;;;;16.57;71.21;97883.28;4885484;29;20495;-73
2023/08/31 08:41:54;;;;;;;8.50;4.50;;;;;;;16.53;70.57;97882.25;4865107;29;20089;-72
2023/08/31 08:44:21;;;;;;;7.88;4.53;;;;;;;16.52;70.10;97879.84;4891388;29;20033;-72
2023/08/31 08:46:48;;;;;;;8.38;5.30;;;;;;;16.28;70.13;97863.50;4878146;29;20029;-73
2023/08/31 08:49:14;;;;;;;7.28;5.05;;;;;;;16.46;70.28;97879.06;4882622;29;20038;-72
2023/08/31 08:51:40;;;;;;;7.50;4.68;;;;;;;16.82;70.22;97890.34;4887795;29;20041;-72
2023/08/31 08:54:05;;;;;;;8.27;4.25;;;;;;;16.73;69.53;97874.97;4875284;29;20045;-73
2023/08/31 08:56:30;;;;;;;7.68;4.07;;;;;;;17.01;69.05;97883.00;4880560;29;20112;-71
2023/08/31 08:58:56;;;;;;;4.63;3.28;;;;;;;16.92;68.46;97883.97;4863799;29;20498;-71
2023/08/31 09:01:22;;;;;;;4.85;3.10;;;;;;;17.08;66.74;97882.66;4880369;29;20028;-72
2023/08/31 09:03:49;;;;;;;6.18;2.78;;;;;;;17.16;64.75;97881.97;4863635;29;20049;-72
2023/08/31 09:06:14;;;;;;;6.00;2.90;;;;;;;17.01;64.50;97888.44;4879224;29;20067;-71
2023/08/31 09:08:41;;;;;;;6.03;2.78;;;;;;;17.10;65.13;97885.88;4876808;29;20076;-72
2023/08/31 09:11:06;;;;;;;6.35;2.70;;;;;;;17.13;65.13;97877.09;4880096;29;20505;-71
2023/08/31 09:13:33;;;;;;;7.28;2.90;;;;;;;17.31;63.80;97891.84;4879017;29;20123;-72
2023/08/31 09:15:58;;;;;;;5.38;3.00;;;;;;;17.34;63.69;97872.97;4881931;29;20028;-71
2023/08/31 09:18:27;;;;;;;4.78;2.90;;;;;;;17.45;62.20;97877.19;4894456;29;20060;-72
2023/08/31 09:20:53;;;;;;;5.80;2.97;;;;;;;17.47;61.61;97885.88;4867023;29;20041;-71
2023/08/31 09:23:19;;;;;;;7.13;2.88;;;;;;;17.52;61.48;97877.66;4878671;29;20033;-71
2023/08/31 09:25:53;;;;;;;5.20;2.65;;;;;;;17.73;60.61;97868.03;4894424;29;20387;-73
2023/08/31 09:28:21;;;;;;;3.08;2.40;;;;;;;18.05;60.89;97890.91;4894210;29;20044;-71
2023/08/31 09:30:47;;;;;;;5.32;3.10;;;;;;;17.98;61.46;97885.03;4880008;29;20029;-72
2023/08/31 09:33:17;;;;;;;3.92;2.50;;;;;;;17.82;61.09;97898.94;4892187;29;20072;-72
2023/08/31 09:35:48;;;;;;;3.33;2.10;;;;;;;17.37;60.69;97885.19;4868520;29;20555;-73
2023/08/31 09:38:14;;;;;;;3.05;1.98;;;;;;;17.39;60.46;97900.13;4881528;29;20037;-72
2023/08/31 09:40:39;;;;;;;3.60;2.25;;;;;;;17.38;61.33;97903.97;4878476;29;20427;-73
2023/08/31 09:43:05;;;;;;;3.95;2.08;;;;;;;17.43;61.32;97906.63;4862765;29;20032;-73
2023/08/31 09:45:32;;;;;;;4.38;2.40;;;;;;;17.75;61.44;97903.97;4894095;29;20080;-72
2023/08/31 09:47:59;;;;;;;3.80;1.85;;;;;;;17.85;60.46;97892.88;4889970;29;20064;-72
2023/08/31 09:50:25;;;;;;;3.92;2.22;;;;;;;17.81;60.48;97897.31;4885877;29;20029;-73
2023/08/31 09:52:54;;;;;;;3.45;2.10;;;;;;;18.33;59.78;97881.66;4881210;29;20080;-76
2023/08/31 09:55:20;;;;;;;5.22;2.40;;;;;;;18.38;58.66;97901.47;4893688;29;20518;-73
2023/08/31 09:57:46;;;;;;;4.15;2.58;;;;;;;18.51;58.37;97886.25;4858758;29;20045;-72
2023/08/31 10:00:15;;;;;;;3.08;2.10;;;;;;;18.16;57.80;97892.34;4854863;29;20039;-72
2023/08/31 10:02:42;;;;;;;4.50;2.22;;;;;;;17.94;58.17;97891.13;4859540;29;20041;-73
2023/08/31 10:05:07;;;;;;;2.60;2.28;;;;;;;17.76;57.48;97880.25;4870369;29;20021;-73
2023/08/31 10:07:33;;;;;;;3.97;2.10;;;;;;;17.68;58.07;97887.19;4889302;29;20038;-74
2023/08/31 10:10:00;;;;;;;3.45;2.30;;;;;;;17.92;58.39;97893.31;4885361;29;20052;-71
2023/08/31 10:12:26;;;;;;;2.72;2.10;;;;;;;17.95;58.33;97903.59;4888794;29;20052;-72
2023/08/31 10:14:53;;;;;;;3.17;2.75;;;;;;;17.99;58.38;97897.56;4885740;29;20273;-73
2023/08/31 10:17:19;;;;;;;4.43;1.92;;;;;;;17.89;57.13;97893.91;4880789;29;20063;-71
2023/08/31 10:19:45;;;;;;;2.83;1.65;;;;;;;17.97;56.84;97873.31;4882593;29;20025;-72
2023/08/31 10:22:10;;;;;;;3.30;1.95;;;;;;;17.97;56.11;97881.50;4872693;29;20599;-72
2023/08/31 10:25:03;;;;;;;3.42;1.75;;;;;;;18.06;55.84;97895.28;4885261;29;20486;-72
2023/08/31 10:27:36;;;;;;;3.30;2.10;;;;;;;18.09;56.22;97886.47;4882588;29;20051;-72
2023/08/31 10:30:20;;;;;;;3.47;1.90;;;;;;;18.33;55.66;97900.75;4877898;29;20041;-74
2023/08/31 10:32:47;;;;;;;3.30;2.00;;;;;;;18.52;55.38;97906.97;4893116;29;20040;-73
2023/08/31 10:35:12;;;;;;;3.17;1.70;;;;;;;18.43;56.17;97903.28;4880492;29;20495;-71
2023/08/31 10:37:40;;;;;;;3.70;2.22;;;;;;;18.39;55.44;97900.34;4885697;29;20072;-71
2023/08/31 10:40:12;;;;;;;2.78;1.90;;;;;;;18.21;55.79;97886.81;4877500;29;20055;-71
2023/08/31 10:42:45;;;;;;;2.92;2.10;;;;;;;18.08;55.52;97890.31;4880944;29;20037;-71
2023/08/31 10:45:10;;;;;;;5.82;2.30;;;;;;;17.91;55.90;97886.25;4888682;29;20116;-72
2023/08/31 10:47:42;;;;;;;3.38;1.60;;;;;;;17.92;55.49;97893.31;4892178;29;20107;-73
2023/08/31 10:50:17;;;;;;;4.22;2.20;;;;;;;17.97;55.80;97899.78;4866567;29;20037;-71
2023/08/31 10:52:45;;;;;;;3.45;1.98;;;;;;;18.00;56.30;97901.91;4880065;29;20044;-72
2023/08/31 10:55:11;;;;;;;4.07;1.80;;;;;;;18.15;56.65;97896.19;4869105;29;20044;-72
2023/08/31 10:57:36;;;;;;;2.45;1.73;;;;;;;18.36;56.65;97891.97;4886476;29;20555;-73
2023/08/31 11:00:03;;;;;;;6.65;2.40;;;;;;;18.46;55.61;97891.81;4883712;29;20029;-71
2023/08/31 11:02:41;;;;;;;4.13;2.13;;;;;;;18.80;55.55;97897.66;4878004;29;20025;-72
2023/08/31 11:05:11;;;;;;;3.60;2.00;;;;;;;19.24;55.51;97892.34;4878180;29;20480;-72
2023/08/31 11:07:39;;;;;;;4.95;2.40;;;;;;;19.58;55.58;97891.03;4892518;29;20051;-72
2023/08/31 11:10:17;;;;;;;3.47;2.00;;;;;;;19.43;54.35;97883.19;4876955;29;20032;-72
2023/08/31 11:12:47;;;;;;;2.95;1.98;;;;;;;19.50;54.25;97894.50;4876947;29;20048;-72
2023/08/31 11:15:14;;;;;;;3.95;1.83;;;;;;;19.48;52.54;97896.75;4892400;29;20150;-71
2023/08/31 11:17:40;;;;;;;4.03;2.13;;;;;;;19.51;53.16;97896.13;4876984;29;20030;-72
2023/08/31 11:20:08;;;;;;;7.20;2.10;;;;;;;19.71;52.71;97881.97;4877131;29;20033;-73
2023/08/31 11:22:34;;;;;;;5.32;2.40;;;;;;;20.06;52.05;97867.41;4891974;29;20488;-73
2023/08/31 11:25:00;;;;;;;3.55;1.80;;;;;;;19.99;51.71;97877.97;4861058;29;20043;-73
2023/08/31 11:27:25;;;;;;;4.05;1.92;;;;;;;19.62;51.50;97881.09;4877829;29;20158;-72
2023/08/31 11:29:50;;;;;;;3.20;1.63;;;;;;;19.29;52.18;97888.69;4877902;29;20041;-71